Time;durP1;ratioP1;P1;durP2;ratioP2;P2;SDS_P1;SDS_P2;PMS_P1;PMS_P2;Temp;Humidity;BMP_temperature;BMP_pressure;BME280_temperature;BME280_humidity;BME280_pressure;Samples;Min_cycle;Max_cycle;Signal;HPM_P1;HPM_P2
2022/01/14 00:01:38;;;;;;;24.92;18.90;;;7.10;99.90;;;7.36;94.88;103678.28;5077928;28;20040;-70
2022/01/14 00:04:07;;;;;;;23.00;18.42;;;7.20;99.90;;;7.27;94.74;103653.28;5077409;28;20110;-70
2022/01/14 00:06:37;;;;;;;29.73;19.30;;;7.20;99.90;;;7.41;94.57;103675.09;5078077;28;20136;-70
2022/01/14 00:09:10;;;;;;;23.42;18.17;;;7.20;99.90;;;6.80;94.41;103559.44;5077686;28;20521;-69
2022/01/14 00:11:44;;;;;;;28.25;19.00;;;7.20;99.90;;;7.41;94.20;103683.00;5077781;28;20132;-69
2022/01/14 00:14:22;;;;;;;27.10;19.60;;;7.20;99.90;;;7.50;94.09;103667.69;5078242;28;20033;-69
2022/01/14 00:16:53;;;;;;;27.88;19.98;;;7.30;99.90;;;7.57;94.04;103663.66;5076328;28;20044;-69
2022/01/14 00:19:22;;;;;;;23.38;18.85;;;7.40;99.90;;;7.56;93.64;103665.38;5073888;28;20513;-69
2022/01/14 00:21:50;;;;;;;26.73;19.23;;;7.40;99.90;;;7.51;93.16;103651.03;5074228;28;20127;-69
2022/01/14 00:24:31;;;;;;;36.08;20.02;;;7.40;99.90;;;7.50;92.95;103658.84;5074405;28;20098;-69
2022/01/14 00:32:42;;;;;;;26.48;19.23;;;7.30;99.90;;;7.45;93.25;103637.56;5074249;28;20049;-71
2022/01/14 00:35:11;;;;;;;42.75;20.27;;;7.30;99.90;;;7.40;92.88;103639.03;5074447;28;20076;-71
2022/01/14 00:37:39;;;;;;;24.60;18.92;;;7.20;99.90;;;7.46;93.54;103639.38;5072699;28;20135;-70
2022/01/14 00:40:11;;;;;;;25.58;19.75;;;7.20;99.90;;;7.52;93.31;103634.41;5074384;28;20048;-70
2022/01/14 00:42:39;;;;;;;27.73;20.65;;;7.30;99.90;;;7.59;93.23;103639.16;5073828;28;20072;-70
2022/01/14 00:45:10;;;;;;;25.40;19.48;;;7.30;99.90;;;7.29;92.81;103598.09;5073794;28;20131;-70
2022/01/14 00:47:40;;;;;;;;;;;7.30;99.90;;;7.42;92.72;103629.50;5074217;28;20044;-70
2022/01/14 00:50:12;;;;;;;27.42;19.77;;;7.30;99.90;;;7.36;93.07;103623.91;5073609;28;19921;-70
2022/01/14 00:52:42;;;;;;;22.30;19.20;;;7.20;99.90;;;7.49;92.84;103636.00;5073840;28;20497;-70
2022/01/14 00:55:16;;;;;;;23.98;19.52;;;7.30;99.90;;;7.51;93.05;103634.34;5073895;28;20046;-70
2022/01/14 01:00:34;;;;;;;23.40;19.27;;;7.30;99.90;;;7.44;92.55;103613.75;5073585;28;20037;-69
2022/01/14 01:03:03;;;;;;;25.10;18.25;;;7.30;99.90;;;7.48;92.83;103624.53;5072744;28;20094;-69
2022/01/14 01:05:32;;;;;;;25.30;18.83;;;7.30;99.90;;;7.48;92.40;103627.19;5073455;28;20052;-70
2022/01/14 01:08:09;;;;;;;22.33;17.83;;;7.30;99.90;;;7.47;92.53;103630.63;5072054;28;20056;-70
2022/01/14 01:10:47;;;;;;;20.48;17.00;;;7.30;99.90;;;7.46;92.22;103634.09;5073652;28;20513;-69
2022/01/14 01:13:21;;;;;;;20.42;17.65;;;7.30;99.90;;;7.46;92.25;103628.81;5073864;28;20048;-69
2022/01/14 01:15:51;;;;;;;20.15;17.55;;;7.30;99.90;;;7.40;92.40;103615.34;5072563;28;20497;-70
2022/01/14 01:18:21;;;;;;;21.55;18.13;;;7.20;99.90;;;7.32;92.17;103618.41;5073304;28;20052;-70
2022/01/14 01:20:50;;;;;;;22.17;17.95;;;7.20;99.90;;;7.34;92.19;103601.84;5073166;28;20102;-69
2022/01/14 01:23:19;;;;;;;20.15;17.55;;;7.20;99.90;;;7.37;92.49;103596.75;5073207;28;20154;-70
2022/01/14 01:26:10;;;;;;;25.45;16.98;;;7.20;99.90;;;7.35;92.29;103594.84;5071759;28;20101;-69
2022/01/14 01:28:53;;;;;;;21.42;17.33;;;7.20;99.90;;;7.30;92.49;103591.97;5073003;28;20058;-69
2022/01/14 01:31:37;;;;;;;18.48;15.90;;;7.10;99.90;;;7.27;92.75;103587.47;5072934;28;20036;-69
2022/01/14 01:34:09;;;;;;;23.73;16.73;;;7.10;99.90;;;7.21;92.32;103578.34;5073052;28;20139;-69
2022/01/14 01:36:39;;;;;;;20.20;17.23;;;7.00;99.90;;;7.22;92.50;103573.16;5073562;28;20113;-69
2022/01/14 01:39:11;;;;;;;38.13;17.35;;;7.00;99.90;;;7.27;92.73;103576.94;5073076;28;20390;-69
2022/01/14 01:41:43;;;;;;;26.40;17.55;;;7.10;99.90;;;7.23;92.82;103568.78;5072662;28;20406;-69
2022/01/14 01:44:13;;;;;;;21.33;17.65;;;7.00;99.90;;;7.19;92.52;103569.47;5072911;28;20040;-69
2022/01/14 01:46:45;;;;;;;25.10;17.98;;;7.00;99.90;;;7.17;92.59;103572.03;5071378;28;20406;-69
2022/01/14 01:49:15;;;;;;;24.02;17.90;;;7.00;99.90;;;7.16;92.55;103577.22;5073083;28;20048;-69
2022/01/14 01:51:46;;;;;;;21.13;16.77;;;6.90;99.90;;;7.16;92.36;103579.84;5072408;28;20139;-69
2022/01/14 01:54:16;;;;;;;17.55;15.75;;;6.90;99.90;;;7.18;92.40;103581.72;5071217;28;20060;-69
2022/01/14 01:56:47;;;;;;;22.40;16.88;;;6.90;99.90;;;7.22;92.36;103582.75;5072435;28;20125;-69
2022/01/14 01:59:15;;;;;;;20.08;16.27;;;7.00;99.90;;;7.09;92.23;103585.59;5072558;28;20119;-69
2022/01/14 02:01:44;;;;;;;19.35;16.77;;;6.90;99.90;;;7.16;92.28;103591.25;5072397;28;20360;-69
2022/01/14 02:04:13;;;;;;;17.27;15.50;;;6.90;99.90;;;7.14;92.37;103587.63;5072036;28;20073;-69
2022/01/14 02:06:42;;;;;;;18.17;16.00;;;6.90;99.90;;;7.13;91.81;103609.53;5072163;28;20098;-69
2022/01/14 02:09:12;;;;;;;21.08;15.48;;;7.00;99.90;;;7.19;91.65;103593.16;5072136;28;20048;-70
2022/01/14 02:11:41;;;;;;;17.00;15.18;;;7.00;99.90;;;7.20;91.78;103593.22;5071942;28;20048;-69
2022/01/14 02:14:26;;;;;;;17.60;15.07;;;7.00;99.90;;;7.22;91.70;103594.22;5072060;28;20058;-69
2022/01/14 02:17:16;;;;;;;17.00;15.10;;;7.00;99.90;;;7.19;91.48;103594.06;5071067;28;20059;-69
2022/01/14 02:22:49;;;;;;;16.60;14.75;;;6.90;99.90;;;7.12;91.40;103593.66;5071797;28;20060;-69
2022/01/14 02:25:28;;;;;;;16.65;14.95;;;6.90;99.90;;;7.13;91.57;103590.19;5072108;28;20059;-70
2022/01/14 02:28:00;;;;;;;20.40;15.35;;;6.90;99.90;;;7.10;91.16;103585.66;5071922;28;20090;-69
2022/01/14 02:30:30;;;;;;;22.05;15.07;;;6.90;99.90;;;7.01;91.17;103587.81;5072034;28;20052;-69
2022/01/14 02:32:59;;;;;;;28.52;14.63;;;6.80;99.90;;;6.94;91.38;103588.31;5072224;28;20040;-69
2022/01/14 02:35:29;;;;;;;19.55;14.88;;;6.70;99.90;;;6.98;91.65;103592.00;5071682;28;20103;-70
2022/01/14 02:37:58;;;;;;;19.00;14.50;;;6.70;99.90;;;6.94;91.62;103585.69;5072281;28;20125;-69
2022/01/14 02:40:28;;;;;;;21.58;15.60;;;6.80;99.90;;;6.95;91.86;103581.34;5070414;28;20076;-69
2022/01/14 02:43:00;;;;;;;20.77;16.00;;;6.80;99.90;;;6.96;91.61;103596.28;5071458;28;20119;-69
2022/01/14 02:45:31;;;;;;;24.10;16.42;;;6.70;99.90;;;6.97;91.75;103598.06;5071775;28;20473;-69
2022/01/14 02:48:03;;;;;;;38.95;19.60;;;6.70;99.90;;;6.94;91.92;103598.84;5071885;28;20065;-69
2022/01/14 02:50:40;;;;;;;39.88;20.08;;;6.70;99.90;;;6.84;92.10;103601.78;5070582;28;20110;-69
2022/01/14 02:53:25;;;;;;;30.73;19.73;;;6.60;99.90;;;6.81;92.57;103593.75;5071872;28;20048;-69
2022/01/14 02:55:56;;;;;;;29.42;21.02;;;6.60;99.90;;;6.73;92.41;103573.09;5071829;28;20044;-69
2022/01/14 02:58:27;;;;;;;41.75;21.63;;;6.60;99.90;;;6.88;92.49;103602.84;5070756;28;20385;-69
2022/01/14 03:00:55;;;;;;;29.25;21.05;;;6.60;99.90;;;6.84;92.66;103607.03;5071873;28;20098;-69
2022/01/14 03:03:25;;;;;;;29.60;20.80;;;6.60;99.90;;;6.92;92.48;103607.47;5071413;28;20052;-69
2022/01/14 03:05:55;;;;;;;26.90;20.80;;;6.70;99.90;;;7.00;92.22;103616.69;5071503;28;20056;-69
2022/01/14 03:08:24;;;;;;;27.38;20.00;;;6.80;99.90;;;7.03;92.05;103614.19;5070078;28;20080;-69
2022/01/14 03:10:57;;;;;;;27.33;19.48;;;6.80;99.90;;;6.98;92.37;103616.59;5071394;28;20110;-69
2022/01/14 03:13:25;;;;;;;35.33;18.85;;;6.80;99.90;;;6.96;92.00;103619.97;5071591;28;20563;-69
2022/01/14 03:15:54;;;;;;;35.05;18.88;;;6.80;99.90;;;6.90;91.90;103603.84;5071302;28;20040;-69
2022/01/14 03:18:31;;;;;;;23.40;16.92;;;6.70;99.90;;;6.73;92.04;103583.59;5071860;28;20137;-69
2022/01/14 03:21:10;;;;;;;21.48;15.68;;;6.70;99.90;;;6.93;92.51;103607.53;5071608;28;20053;-69
2022/01/14 03:23:46;;;;;;;23.52;15.20;;;6.70;99.90;;;6.88;92.09;103608.13;5071285;28;20136;-69
2022/01/14 03:26:16;;;;;;;26.70;15.00;;;6.70;99.90;;;6.78;92.33;103606.72;5071192;28;20075;-69
2022/01/14 03:28:44;;;;;;;18.83;15.00;;;6.60;99.90;;;6.80;92.13;103593.63;5071173;28;20557;-69
2022/01/14 03:31:13;;;;;;;25.40;14.55;;;6.60;99.90;;;6.79;92.34;103586.59;5071387;28;20048;-69
2022/01/14 03:33:41;;;;;;;16.60;14.80;;;6.60;99.90;;;6.71;92.13;103587.88;5070987;28;20076;-69
2022/01/14 03:36:12;;;;;;;17.35;14.15;;;6.50;99.90;;;6.79;92.41;103589.22;5071248;28;20135;-69
2022/01/14 03:38:40;;;;;;;17.10;14.27;;;6.50;99.90;;;6.83;92.38;103583.28;5071312;28;20155;-69
2022/01/14 03:41:09;;;;;;;16.42;14.68;;;6.60;99.90;;;6.82;91.95;103570.94;5070971;28;20072;-69
2022/01/14 03:43:38;;;;;;;17.65;14.20;;;6.60;99.90;;;6.81;92.24;103575.31;5071494;28;20144;-69
2022/01/14 03:46:07;;;;;;;17.23;14.60;;;6.60;99.90;;;6.87;92.11;103577.38;5069801;28;20094;-69
2022/01/14 03:48:36;;;;;;;17.15;14.82;;;6.70;99.90;;;6.88;92.11;103573.91;5071287;28;20044;-69
2022/01/14 03:51:04;;;;;;;30.98;15.60;;;6.70;99.90;;;6.75;91.50;103563.56;5070922;28;20051;-69
2022/01/14 03:53:34;;;;;;;17.90;14.48;;;6.60;99.90;;;6.74;92.23;103561.72;5072196;28;20036;-69
2022/01/14 03:56:02;;;;;;;17.73;14.38;;;6.60;99.90;;;6.75;92.00;103555.66;5074959;28;20075;-69
2022/01/14 03:58:40;;;;;;;21.10;15.20;;;6.60;99.90;;;6.78;92.28;103554.09;5074966;28;20140;-69
2022/01/14 04:01:09;;;;;;;17.45;15.63;;;6.60;99.90;;;6.85;92.07;103556.22;5075139;28;20068;-69
2022/01/14 04:03:38;;;;;;;19.63;15.00;;;6.60;99.90;;;6.86;91.90;103559.78;5074882;28;20040;-69
2022/01/14 04:06:07;;;;;;;16.83;15.02;;;6.70;99.90;;;6.89;92.03;103565.22;5074840;28;20041;-69
2022/01/14 04:08:37;;;;;;;17.38;15.55;;;6.70;99.90;;;6.90;91.55;103561.75;5075164;28;20473;-69
2022/01/14 04:11:06;;;;;;;16.45;14.75;;;6.70;99.90;;;6.94;91.76;103563.72;5073433;28;20166;-69
2022/01/14 04:13:45;;;;;;;17.02;15.23;;;6.70;99.90;;;6.93;91.77;103562.81;5074594;28;20074;-69
2022/01/14 04:16:14;;;;;;;16.48;14.57;;;6.70;99.90;;;6.72;91.80;103506.41;5074814;28;20065;-69
2022/01/14 04:18:43;;;;;;;17.17;15.32;;;6.80;99.90;;;6.96;91.48;103551.56;5074476;28;20454;-69
2022/01/14 04:21:12;;;;;;;16.85;15.07;;;6.80;99.90;;;7.02;91.23;103550.16;5074280;28;20071;-69
2022/01/14 04:23:41;;;;;;;15.80;14.13;;;6.80;99.90;;;7.04;91.34;103543.25;5074200;28;20048;-69
2022/01/14 04:26:11;;;;;;;16.27;14.57;;;6.80;99.90;;;7.05;91.12;103537.16;5074981;28;20140;-69
2022/01/14 04:28:39;;;;;;;19.45;15.07;;;6.90;99.90;;;7.02;91.12;103531.75;5074111;28;20127;-69
2022/01/14 04:31:09;;;;;;;18.77;15.35;;;6.90;99.90;;;7.01;91.27;103529.00;5072914;28;20447;-69
2022/01/14 04:33:39;;;;;;;17.45;14.00;;;6.80;99.90;;;6.99;91.06;103535.91;5074508;28;20079;-69
2022/01/14 04:36:08;;;;;;;18.30;14.23;;;6.80;99.90;;;6.98;91.06;103516.63;5074296;28;20076;-69
2022/01/14 04:38:37;;;;;;;20.60;14.32;;;6.80;99.90;;;6.92;90.79;103515.38;5074138;28;20044;-69
2022/01/14 04:41:08;;;;;;;28.38;15.27;;;6.70;99.90;;;6.86;90.98;103521.22;5073798;28;20094;-69
2022/01/14 04:43:37;;;;;;;16.80;14.63;;;6.70;99.90;;;6.81;91.34;103525.34;5073874;28;20552;-69
2022/01/14 04:46:46;;;;;;;17.40;15.50;;;6.60;99.90;;;6.83;91.34;103520.16;5073657;28;20047;-69
2022/01/14 04:49:14;;;;;;;17.27;15.48;;;6.60;99.90;;;6.86;91.24;103526.47;5073946;28;20107;-69
2022/01/14 04:51:43;;;;;;;16.85;15.05;;;6.70;99.90;;;6.89;90.98;103520.50;5073934;28;20068;-69
2022/01/14 04:54:11;;;;;;;20.15;15.13;;;6.70;99.90;;;6.85;90.82;103519.41;5073455;28;20047;-69
2022/01/14 04:56:41;;;;;;;19.63;14.32;;;6.60;99.90;;;6.78;91.03;103519.00;5073502;28;20079;-69
2022/01/14 04:59:10;;;;;;;24.15;14.63;;;6.50;99.90;;;6.74;90.74;103517.00;5073942;28;20076;-69
2022/01/14 05:01:38;;;;;;;30.58;14.07;;;6.60;99.90;;;6.65;90.92;103508.66;5071923;28;20255;-69
2022/01/14 05:04:07;;;;;;;25.50;13.98;;;6.50;99.90;;;6.57;91.03;103495.09;5072832;28;20052;-69
2022/01/14 05:06:43;;;;;;;14.95;12.35;;;6.40;99.90;;;6.40;91.30;103474.88;5073339;28;20051;-69
2022/01/14 05:09:22;;;;;;;16.70;13.48;;;6.30;99.90;;;6.53;91.01;103485.22;5073435;28;20118;-69
2022/01/14 05:11:57;;;;;;;14.52;12.85;;;6.40;99.90;;;6.62;91.22;103483.06;5073297;28;20052;-69
2022/01/14 05:14:28;;;;;;;14.13;12.73;;;6.40;99.90;;;6.65;90.99;103477.09;5073191;28;20105;-69
2022/01/14 05:16:56;;;;;;;13.65;12.25;;;6.40;99.90;;;6.70;90.73;103476.50;5073417;28;20044;-69
2022/01/14 05:19:24;;;;;;;14.87;13.03;;;6.50;99.90;;;6.72;90.68;103480.13;5073403;28;20116;-69
2022/01/14 05:21:53;;;;;;;13.50;12.20;;;6.50;99.90;;;6.69;90.28;103469.44;5073435;28;20068;-69
2022/01/14 05:24:22;;;;;;;15.43;13.93;;;6.50;99.90;;;6.66;90.33;103464.00;5073326;28;20044;-69
2022/01/14 05:26:52;;;;;;;14.57;13.00;;;6.50;99.90;;;6.49;89.92;103449.06;5073330;28;20140;-69
2022/01/14 05:29:20;;;;;;;14.23;12.83;;;6.40;99.90;;;6.61;90.28;103467.22;5071900;28;20048;-69
2022/01/14 05:31:52;;;;;;;14.20;12.68;;;6.40;99.90;;;6.67;90.28;103459.66;5073179;28;20818;-69
2022/01/14 05:34:20;;;;;;;19.35;12.93;;;6.50;99.90;;;6.65;90.05;103464.84;5072809;28;20045;-69
2022/01/14 05:36:48;;;;;;;18.00;12.20;;;6.40;99.90;;;6.55;89.62;103459.00;5072834;28;20035;-69
2022/01/14 05:39:20;;;;;;;12.73;11.52;;;6.40;99.90;;;6.57;90.21;103463.53;5073360;28;20102;-69
2022/01/14 05:41:48;;;;;;;12.30;10.90;;;6.40;99.90;;;6.62;89.96;103476.94;5072807;28;20439;-69
2022/01/14 05:44:18;;;;;;;12.45;11.25;;;6.40;99.90;;;6.46;89.55;103455.91;5071657;28;20052;-69
2022/01/14 05:46:47;;;;;;;14.18;11.82;;;6.40;99.90;;;6.53;89.69;103472.06;5073282;28;20124;-69
2022/01/14 05:49:15;;;;;;;18.50;11.47;;;6.40;99.90;;;6.44;89.64;103468.97;5072810;28;20048;-69
2022/01/14 05:51:44;;;;;;;16.33;13.07;;;6.30;99.90;;;6.37;89.82;103479.94;5073039;28;20109;-69
2022/01/14 05:54:12;;;;;;;15.07;11.23;;;6.20;99.90;;;6.39;89.80;103467.78;5072246;28;20068;-69
2022/01/14 05:56:41;;;;;;;22.47;13.33;;;6.20;99.90;;;6.39;89.85;103479.22;5072568;28;20052;-69
2022/01/14 05:59:10;;;;;;;13.15;11.85;;;6.20;99.90;;;6.37;89.93;103486.13;5072367;28;20529;-69
2022/01/14 06:01:41;;;;;;;13.13;11.82;;;6.20;99.90;;;6.42;90.30;103477.56;5072301;28;20118;-69
2022/01/14 06:04:09;;;;;;;;;;;6.20;99.90;;;6.38;89.71;103471.25;5073040;28;20493;-69
2022/01/14 06:06:38;;;;;;;15.73;12.60;;;6.20;99.90;;;6.40;90.15;103467.00;5072774;28;19974;-69
2022/01/14 06:09:06;;;;;;;14.47;11.43;;;6.20;99.90;;;6.33;89.83;103472.72;5070840;28;20359;-69
2022/01/14 06:11:34;;;;;;;13.95;12.27;;;6.10;99.90;;;6.31;89.85;103470.00;5072376;28;20127;-69
2022/01/14 06:14:03;;;;;;;13.63;11.77;;;6.10;99.90;;;6.29;89.97;103466.38;5071990;28;20079;-69
2022/01/14 06:16:31;;;;;;;13.77;12.37;;;6.10;99.90;;;6.32;89.94;103474.47;5071342;28;20040;-69
2022/01/14 06:19:01;;;;;;;14.45;12.95;;;6.10;99.90;;;6.28;89.88;103475.09;5071993;28;20048;-69
2022/01/14 06:21:30;;;;;;;21.58;16.63;;;6.10;99.90;;;6.30;90.10;103478.72;5072183;28;20413;-69
2022/01/14 06:23:58;;;;;;;21.23;16.83;;;6.10;99.90;;;6.36;90.14;103483.41;5071810;28;20045;-69
2022/01/14 06:26:27;;;;;;;19.17;15.87;;;6.20;99.90;;;6.43;89.91;103477.66;5071817;28;20091;-69
2022/01/14 06:28:56;;;;;;;19.98;16.63;;;6.30;99.90;;;6.42;89.77;103475.88;5071656;28;20064;-69
2022/01/14 06:31:24;;;;;;;18.57;16.07;;;6.20;99.90;;;6.39;89.76;103479.22;5071633;28;20510;-69
2022/01/14 06:33:53;;;;;;;21.57;14.73;;;6.30;99.90;;;6.44;89.68;103484.75;5072492;28;20056;-69
2022/01/14 06:36:22;;;;;;;18.67;15.07;;;6.30;99.90;;;6.41;89.50;103478.41;5071500;28;20044;-69
2022/01/14 06:38:51;;;;;;;24.37;15.70;;;6.30;99.90;;;6.37;89.98;103491.38;5072201;28;20079;-69
2022/01/14 06:41:19;;;;;;;19.42;15.60;;;6.20;99.90;;;6.34;89.55;103491.22;5072254;28;20527;-69
2022/01/14 06:43:47;;;;;;;18.80;14.75;;;6.20;99.90;;;6.27;89.60;103485.53;5071589;28;20044;-69
2022/01/14 06:46:17;;;;;;;28.58;16.15;;;6.10;99.90;;;6.28;89.86;103484.72;5072124;28;20052;-69
2022/01/14 06:48:45;;;;;;;20.90;15.98;;;6.10;99.90;;;6.32;89.96;103486.69;5071937;28;20137;-69
2022/01/14 06:51:15;;;;;;;33.08;15.30;;;6.10;99.90;;;6.24;89.70;103470.50;5071540;28;20056;-69
2022/01/14 06:53:47;;;;;;;25.00;16.37;;;6.10;99.90;;;6.14;89.63;103462.00;5071375;28;20052;-70
2022/01/14 06:56:16;;;;;;;21.23;16.02;;;6.00;99.90;;;6.13;89.39;103489.13;5071759;28;20044;-69
2022/01/14 06:58:45;;;;;;;18.63;16.67;;;6.00;99.90;;;6.14;89.75;103468.19;5071461;28;20040;-69
2022/01/14 07:01:14;;;;;;;19.15;16.23;;;6.00;99.90;;;6.18;89.86;103483.31;5070326;28;20127;-69
2022/01/14 07:03:43;;;;;;;20.98;16.35;;;6.10;99.90;;;6.26;89.60;103495.16;5071427;28;20097;-69
2022/01/14 07:06:11;;;;;;;17.55;15.77;;;6.10;99.90;;;6.30;89.37;103491.88;5071386;28;20044;-69
2022/01/14 07:08:40;;;;;;;18.73;16.37;;;6.20;99.90;;;6.10;88.92;103497.72;5072201;28;20060;-69
2022/01/14 07:11:11;;;;;;;18.20;15.87;;;6.00;99.90;;;5.92;89.44;103508.94;5072457;28;20090;-69
2022/01/14 07:13:39;;;;;;;22.37;16.67;;;5.80;99.90;;;6.06;90.03;103502.72;5071571;28;20505;-69
2022/01/14 07:16:07;;;;;;;18.90;16.23;;;5.90;99.90;;;6.13;89.88;103504.91;5071973;28;20072;-69
2022/01/14 07:18:36;;;;;;;20.25;14.88;;;5.90;99.90;;;6.04;89.69;103505.28;5071206;28;20185;-69
2022/01/14 07:21:04;;;;;;;17.97;15.73;;;5.90;99.90;;;5.97;89.73;103499.59;5071246;28;20147;-69
2022/01/14 07:23:33;;;;;;;17.70;15.47;;;5.80;99.90;;;6.01;89.70;103499.84;5071249;28;20131;-69
2022/01/14 07:26:01;;;;;;;17.95;16.05;;;5.80;99.90;;;5.97;89.83;103505.75;5071477;28;20123;-69
2022/01/14 07:28:31;;;;;;;17.33;15.00;;;5.80;99.90;;;6.03;89.69;103502.56;5073608;28;20478;-69
2022/01/14 07:30:59;;;;;;;21.35;14.25;;;5.80;99.90;;;6.08;90.04;103495.84;5075205;28;20150;-69
2022/01/14 07:33:28;;;;;;;15.77;14.20;;;5.90;99.90;;;6.20;90.03;103509.66;5075164;28;20102;-69
2022/01/14 07:35:56;;;;;;;15.63;13.30;;;6.00;99.90;;;6.26;89.56;103510.00;5074922;28;20040;-69
2022/01/14 07:38:24;;;;;;;16.40;13.83;;;6.10;99.90;;;6.26;89.42;103508.28;5075471;28;20044;-69
2022/01/14 07:40:53;;;;;;;14.83;13.20;;;6.10;99.90;;;6.23;89.15;103513.34;5075477;28;20048;-69
2022/01/14 07:43:21;;;;;;;15.10;13.50;;;6.10;99.90;;;6.23;89.11;103512.47;5075331;28;20055;-69
2022/01/14 07:45:51;;;;;;;17.67;13.10;;;6.10;99.90;;;6.30;89.10;103505.00;5075065;28;20395;-69
2022/01/14 07:48:20;;;;;;;15.23;13.05;;;6.20;99.90;;;6.28;89.27;103525.06;5075017;28;20324;-69
2022/01/14 07:50:48;;;;;;;18.65;14.57;;;6.20;99.90;;;6.33;89.07;103515.69;5074406;28;20136;-69
2022/01/14 07:53:17;;;;;;;16.58;13.90;;;6.20;99.90;;;6.37;89.10;103522.00;5074418;28;20044;-69
2022/01/14 07:55:45;;;;;;;17.50;14.63;;;6.20;99.90;;;6.40;89.12;103509.06;5074442;28;20123;-69
2022/01/14 07:58:16;;;;;;;16.58;14.80;;;6.20;99.90;;;5.83;89.14;103433.16;5074438;28;20102;-69
2022/01/14 08:00:44;;;;;;;17.77;15.50;;;6.30;99.90;;;6.31;89.30;103511.16;5074481;28;20506;-69
2022/01/14 08:03:14;;;;;;;18.08;14.50;;;6.20;99.90;;;6.33;89.33;103499.91;5074406;28;20055;-69
2022/01/14 08:05:44;;;;;;;16.85;14.70;;;6.20;99.90;;;6.36;89.64;103500.09;5074445;28;20052;-69
2022/01/14 08:08:13;;;;;;;16.10;14.50;;;6.20;99.90;;;6.38;89.55;103537.88;5074688;28;20147;-69
2022/01/14 08:10:41;;;;;;;18.90;15.85;;;6.20;99.90;;;6.44;89.29;103504.84;5074238;28;20049;-69
2022/01/14 08:13:10;;;;;;;17.35;14.18;;;6.30;99.90;;;6.43;89.29;103505.69;5074349;28;20044;-69
2022/01/14 08:15:38;;;;;;;17.65;15.30;;;6.30;99.90;;;6.48;88.96;103509.47;5074563;28;20075;-68
2022/01/14 08:18:07;;;;;;;18.42;15.82;;;6.30;99.90;;;6.48;89.04;103509.47;5074234;28;20112;-69
2022/01/14 08:20:37;;;;;;;20.63;17.92;;;6.40;99.90;;;6.49;89.03;103519.13;5074788;28;20048;-68
2022/01/14 08:23:05;;;;;;;20.05;15.93;;;6.40;99.90;;;6.44;89.16;103513.66;5074235;28;20159;-71
2022/01/14 08:25:36;;;;;;;;;;;6.30;99.90;;;6.51;89.03;103514.88;5073511;28;20491;-70
2022/01/14 08:28:05;;;;;;;20.75;16.17;;;6.40;99.90;;;6.58;89.07;103510.03;5074109;28;19924;-69
2022/01/14 08:30:34;;;;;;;18.38;15.77;;;6.40;99.90;;;6.64;89.25;103512.13;5074276;28;20102;-70
2022/01/14 08:33:02;;;;;;;24.40;17.83;;;6.50;99.90;;;6.59;88.96;103514.47;5074060;28;20049;-70
2022/01/14 08:35:30;;;;;;;20.38;16.13;;;6.50;99.90;;;6.71;89.46;103530.00;5073993;28;20060;-77
2022/01/14 08:38:00;;;;;;;18.83;16.77;;;6.50;99.90;;;6.76;89.23;103528.53;5072955;28;20048;-71
2022/01/14 08:40:29;;;;;;;23.85;17.98;;;6.60;99.90;;;6.69;88.92;103529.94;5072100;28;20052;-68
2022/01/14 08:42:58;;;;;;;19.50;16.55;;;6.50;99.90;;;6.22;88.99;103432.72;5074473;28;20051;-69
2022/01/14 08:45:27;;;;;;;22.17;16.23;;;6.60;99.90;;;6.86;88.94;103541.34;5074182;28;20048;-69
2022/01/14 08:47:56;;;;;;;21.10;17.02;;;6.70;99.90;;;6.91;88.92;103537.25;5073792;28;20135;-83
2022/01/14 08:50:28;;;;;;;21.35;17.20;;;6.70;99.90;;;6.87;89.01;103519.50;5072164;28;20060;-82
2022/01/14 08:52:58;;;;;;;21.83;16.88;;;6.70;99.90;;;6.48;88.92;103430.59;5073958;28;20044;-76
2022/01/14 08:55:28;;;;;;;22.77;17.50;;;6.80;99.90;;;7.05;88.51;103521.38;5073693;28;20045;-73
2022/01/14 08:57:57;;;;;;;19.77;16.95;;;6.80;99.90;;;7.03;88.62;103525.63;5073843;28;20118;-72
2022/01/14 09:00:26;;;;;;;21.77;17.80;;;6.80;99.90;;;6.88;88.94;103524.84;5073565;28;20114;-72
2022/01/14 09:02:56;;;;;;;21.48;17.58;;;6.70;99.90;;;6.73;89.57;103525.75;5072356;28;20135;-72
2022/01/14 09:05:25;;;;;;;21.92;18.55;;;6.50;99.90;;;6.83;90.05;103534.19;5073516;28;20522;-70
2022/01/14 09:07:54;;;;;;;22.40;18.48;;;6.60;99.90;;;6.94;89.71;103534.78;5073499;28;20473;-70
2022/01/14 09:10:23;;;;;;;22.27;17.42;;;6.70;99.90;;;7.08;89.83;103515.38;5073327;28;20048;-71
2022/01/14 09:12:52;;;;;;;20.85;16.45;;;6.90;99.90;;;7.14;89.36;103513.94;5073683;28;20083;-71
2022/01/14 09:15:21;;;;;;;21.30;17.45;;;6.90;99.90;;;7.21;89.41;103512.53;5073554;28;20075;-70
2022/01/14 09:17:50;;;;;;;22.58;18.17;;;7.00;99.90;;;7.27;89.38;103503.25;5073229;28;20041;-74
2022/01/14 09:20:18;;;;;;;20.92;17.40;;;7.10;99.90;;;7.35;89.61;103514.16;5072971;28;20158;-72
2022/01/14 09:22:56;;;;;;;21.33;16.55;;;7.20;99.90;;;7.42;89.26;103504.81;5073536;28;20044;-73
2022/01/14 09:25:25;;;;;;;24.67;16.77;;;7.20;99.90;;;7.41;89.59;103505.66;5073301;28;20142;-71
2022/01/14 09:27:54;;;;;;;23.38;17.67;;;7.20;99.90;;;7.51;90.01;103514.09;5072803;28;20044;-72
2022/01/14 09:30:24;;;;;;;24.67;19.05;;;7.30;99.90;;;7.25;90.48;103512.78;5073127;28;20044;-76
2022/01/14 09:32:52;;;;;;;23.23;18.45;;;7.10;99.90;;;7.42;91.02;103505.72;5073299;28;20127;-73
2022/01/14 09:35:20;;;;;;;23.13;19.13;;;7.20;99.90;;;7.38;91.32;103514.28;5072647;28;20206;-72
2022/01/14 09:37:50;;;;;;;24.58;18.48;;;7.20;99.90;;;7.60;91.03;103516.28;5072555;28;20036;-73
2022/01/14 09:40:23;;;;;;;24.73;18.98;;;7.40;99.90;;;7.67;90.92;103516.66;5071524;28;20068;-76
2022/01/14 09:43:00;;;;;;;24.80;18.75;;;7.50;99.90;;;7.69;91.05;103517.66;5072512;28;20091;-81
2022/01/14 09:45:52;;;;;;;26.17;18.75;;;7.50;99.90;;;7.84;90.49;103530.69;5073222;28;20049;-80
2022/01/14 09:48:21;;;;;;;26.08;19.35;;;7.60;99.90;;;7.93;90.25;103523.22;5072653;28;20475;-82
2022/01/14 09:50:51;;;;;;;23.27;19.08;;;7.70;99.90;;;7.83;90.72;103528.88;5072488;28;20460;-81
2022/01/14 09:53:19;;;;;;;23.20;19.17;;;7.60;99.90;;;7.91;90.79;103524.88;5072972;28;20106;-83
2022/01/14 09:55:48;;;;;;;33.30;22.42;;;7.70;99.90;;;7.82;91.99;103524.44;5072899;28;20469;-76
2022/01/14 09:58:18;;;;;;;35.88;24.10;;;7.60;99.90;;;7.73;93.00;103519.59;5072657;28;20155;-84
2022/01/14 10:00:47;;;;;;;38.45;24.30;;;7.70;99.90;;;8.10;93.26;103533.75;5072480;28;20040;-78
2022/01/14 10:03:21;;;;;;;34.92;24.70;;;7.90;99.90;;;8.27;92.78;103533.69;5072133;28;20359;-77
2022/01/14 10:05:52;;;;;;;36.42;24.92;;;8.00;99.90;;;8.26;92.47;103534.53;5072865;28;20048;-76
2022/01/14 10:08:25;;;;;;;36.92;26.08;;;8.10;99.90;;;8.31;93.04;103518.09;5072367;28;20044;-77
2022/01/14 10:10:58;;;;;;;40.50;27.45;;;8.20;99.90;;;8.48;92.33;103526.81;5072220;28;20052;-79
2022/01/14 10:13:31;;;;;;;41.38;27.33;;;8.30;99.90;;;8.50;92.45;103530.38;5072366;28;20370;-81
2022/01/14 10:16:03;;;;;;;41.95;28.17;;;8.30;99.90;;;8.62;92.61;103530.97;5072592;28;20044;-79
2022/01/14 10:18:33;;;;;;;42.75;28.27;;;8.40;99.90;;;8.70;92.16;103529.59;5105020;28;20098;-74
2022/01/14 10:21:06;;;;;;;39.80;27.75;;;8.50;99.90;;;8.76;91.89;103536.06;5072823;28;20050;-74
2022/01/14 10:23:43;;;;;;;41.72;28.67;;;8.60;99.90;;;8.94;91.36;103526.31;5071772;28;20056;-76
2022/01/14 10:26:12;;;;;;;47.90;29.58;;;8.70;99.90;;;8.89;90.77;103532.22;5071985;28;20470;-73
2022/01/14 10:28:45;;;;;;;42.00;28.35;;;8.70;99.90;;;8.98;90.89;103535.31;5072255;28;20072;-77
2022/01/14 10:31:14;;;;;;;45.70;28.75;;;8.80;99.90;;;8.83;90.79;103531.94;5070688;28;20396;-77
2022/01/14 10:33:42;;;;;;;41.42;26.40;;;8.70;99.90;;;8.70;91.15;103532.22;5071767;28;20097;-82
2022/01/14 10:36:22;;;;;;;42.83;24.75;;;8.60;99.90;;;8.93;90.78;103529.81;5072025;28;20044;-78
2022/01/14 10:38:50;;;;;;;39.58;26.85;;;8.70;99.90;;;9.04;89.94;103528.53;5071629;28;20118;-68